Terminal Aerodrome Forecast
Issued by NWS

Home | Current Version | Previous Version | Text Only | Print | Product List | Glossary On
Versions: 1 2 3 4 5 6 7 8 9 10 11 12 13 14 15 16 17 18 19
000
FTUS42 KMLB 171900 AAA
TAFLEE
TAF AMD
KLEE 171918Z 1719/1818 09013G21KT P6SM VCSH OVC040
     FM180200 07012KT P6SM -SHRA SCT005 BKN015 OVC020
     FM181200 09012KT P6SM VCSH BKN035 OVC060=

USA.gov is the U.S. government's official web portal to all federal, state and local government web resources and services.